createdAt,value
2018-11-05T00:00:42.342Z,48.23
2018-11-05T00:03:11.342Z,44.23
2018-11-05T00:05:40.455Z,41.10
2018-11-05T00:08:09.451Z,41.50
2018-11-05T00:10:53.477Z,41.73
2018-11-05T00:13:22.582Z,44.20
2018-11-05T00:15:51.504Z,44.60
2018-11-05T00:18:20.666Z,40.13
2018-11-05T00:20:49.638Z,40.70
2018-11-05T00:23:18.564Z,38.47
2018-11-05T00:25:47.516Z,43.93
2018-11-05T00:28:16.457Z,44.17
2018-11-05T00:30:45.384Z,37.27
2018-11-05T00:33:14.376Z,46.83
2018-11-05T00:35:43.371Z,42.57
2018-11-05T00:38:12.319Z,42.37
2018-11-05T00:40:41.483Z,37.23
2018-11-05T00:43:10.510Z,38.20
2018-11-05T00:45:39.591Z,42.00
2018-11-05T00:48:08.439Z,39.57
2018-11-05T00:50:37.393Z,40.83
2018-11-05T00:53:06.567Z,45.27
2018-11-05T00:55:35.729Z,39.67
2018-11-05T00:58:04.856Z,43.30
2018-11-05T01:00:33.807Z,42.63
2018-11-05T01:03:02.936Z,41.57
2018-11-05T01:05:31.897Z,38.53
2018-11-05T01:08:00.887Z,36.97
2018-11-05T01:10:29.872Z,38.60
2018-11-05T01:12:58.846Z,37.10
2018-11-05T01:15:28.075Z,42.70
2018-11-05T01:17:57.015Z,34.87
2018-11-05T01:20:25.964Z,38.43
2018-11-05T01:22:55.079Z,41.90
2018-11-05T01:25:24.036Z,38.90
2018-11-05T01:27:52.978Z,41.63
2018-11-05T01:30:21.928Z,37.93
2018-11-05T01:32:50.874Z,40.00
2018-11-05T01:35:19.813Z,41.97
2018-11-05T01:37:49.587Z,39.53
2018-11-05T01:40:18.513Z,39.23
2018-11-05T01:42:47.446Z,40.73
2018-11-05T01:45:16.411Z,39.93
2018-11-05T01:47:45.419Z,41.83
2018-11-05T01:50:15.820Z,43.10
2018-11-05T01:52:45.107Z,39.90
2018-11-05T01:55:14.166Z,39.77
2018-11-05T01:57:43.220Z,36.90
2018-11-05T02:00:14.877Z,41.97
2018-11-05T02:02:44.650Z,42.57
2018-11-05T02:05:13.631Z,41.87
2018-11-05T02:07:43.965Z,40.13
2018-11-05T02:10:15.280Z,40.00
2018-11-05T02:12:44.181Z,41.00
2018-11-05T02:15:13.296Z,43.83
2018-11-05T02:17:43.451Z,42.03
2018-11-05T02:20:13.365Z,41.97
2018-11-05T02:22:42.370Z,38.87
2018-11-05T02:25:12.471Z,39.80
2018-11-05T02:27:41.992Z,44.33
2018-11-05T02:30:14.563Z,43.23
2018-11-05T02:32:43.518Z,45.03
2018-11-05T02:35:13.356Z,43.40
2018-11-05T02:37:43.183Z,46.00
2018-11-05T02:40:15.476Z,47.27
2018-11-05T02:42:44.885Z,42.00
2018-11-05T02:45:14.961Z,43.27
2018-11-05T02:47:43.893Z,44.47
2018-11-05T02:50:13.576Z,47.67
2018-11-05T02:52:43.652Z,45.40
2018-11-05T02:55:12.596Z,45.00
2018-11-05T02:57:41.549Z,53.77
2018-11-05T03:00:12.960Z,44.67
2018-11-05T03:02:42.202Z,41.40
2018-11-05T03:05:12.889Z,46.20
2018-11-05T03:07:42.220Z,47.47
2018-11-05T03:10:11.825Z,48.57
2018-11-05T03:12:41.548Z,41.50
2018-11-05T03:15:12.617Z,46.87
2018-11-05T03:17:41.633Z,45.03
2018-11-05T03:20:11.887Z,42.67
2018-11-05T03:22:41.398Z,44.37
2018-11-05T03:25:10.515Z,45.40
2018-11-05T03:27:39.804Z,44.93
2018-11-05T03:30:10.555Z,42.00
2018-11-05T03:32:39.529Z,45.23
2018-11-05T03:35:10.711Z,42.13
2018-11-05T03:37:40.447Z,40.90
2018-11-05T03:40:10.332Z,41.23
2018-11-05T03:42:39.848Z,43.40
2018-11-05T03:45:11.579Z,44.30
2018-11-05T03:47:40.569Z,43.27
2018-11-05T03:50:12.604Z,47.17
2018-11-05T03:52:41.831Z,42.37
2018-11-05T03:55:10.787Z,46.07
2018-11-05T03:57:40.298Z,42.33
2018-11-05T04:00:10.992Z,42.27
2018-11-05T04:02:39.983Z,46.90
2018-11-05T04:05:09.416Z,50.30
2018-11-05T04:07:38.880Z,44.83
2018-11-05T04:10:08.672Z,52.57
2018-11-05T04:12:37.640Z,47.63
2018-11-05T04:15:06.818Z,51.57
2018-11-05T04:17:35.720Z,44.80
2018-11-05T04:20:05.692Z,54.00
2018-11-05T04:22:34.766Z,47.50
2018-11-05T04:25:03.809Z,48.57
2018-11-05T04:27:32.789Z,49.40
2018-11-05T04:30:01.741Z,51.40
2018-11-05T04:32:30.719Z,48.80
2018-11-05T04:34:59.656Z,46.70
2018-11-05T04:37:28.656Z,42.93
2018-11-05T04:39:58.016Z,49.18
2018-11-05T04:42:27.074Z,51.03
2018-11-05T04:44:56.049Z,51.60
2018-11-05T04:47:25.011Z,44.33
2018-11-05T04:49:54.419Z,48.27
2018-11-05T04:52:23.379Z,49.83
2018-11-05T04:54:52.295Z,49.93
2018-11-05T04:57:21.466Z,44.53
2018-11-05T04:59:50.486Z,52.07
2018-11-05T05:02:19.931Z,52.10
2018-11-05T05:04:49.066Z,47.97
2018-11-05T05:07:18.102Z,54.63
2018-11-05T05:09:47.419Z,52.43
2018-11-05T05:12:16.391Z,46.67
2018-11-05T05:14:45.683Z,47.20
2018-11-05T05:17:14.763Z,47.70
2018-11-05T05:19:43.691Z,51.03
2018-11-05T05:22:12.668Z,50.77
2018-11-05T05:24:41.696Z,52.30
2018-11-05T05:27:10.831Z,52.57
2018-11-05T05:29:39.764Z,51.90
2018-11-05T05:32:08.683Z,47.83
2018-11-05T05:34:37.815Z,52.57
2018-11-05T05:37:06.805Z,52.47
2018-11-05T05:39:36.003Z,56.50
2018-11-05T05:42:05.263Z,46.00
2018-11-05T05:44:34.408Z,55.57
2018-11-05T05:47:03.525Z,56.00
2018-11-05T05:49:32.444Z,55.80
2018-11-05T05:52:01.515Z,50.40
2018-11-05T05:54:30.524Z,49.40
2018-11-05T05:56:59.454Z,52.27
2018-11-05T05:59:28.407Z,53.13
2018-11-05T06:01:57.403Z,56.27
2018-11-05T06:04:26.479Z,57.10
2018-11-05T06:06:55.475Z,61.17
2018-11-05T06:09:24.733Z,54.53
2018-11-05T06:11:54.967Z,54.97
2018-11-05T06:14:25.268Z,55.87
2018-11-05T06:16:54.432Z,54.10
2018-11-05T06:19:23.831Z,58.70
2018-11-05T06:21:59.843Z,60.07
2018-11-05T06:24:29.274Z,57.77
2018-11-05T06:26:58.403Z,60.37
2018-11-05T06:29:27.560Z,66.37
2018-11-05T06:32:16.473Z,62.70
2018-11-05T06:34:47.002Z,63.43
2018-11-05T06:37:15.959Z,70.17
2018-11-05T06:39:49.057Z,61.87
2018-11-05T06:42:18.115Z,65.30
2018-11-05T06:44:47.228Z,59.97
2018-11-05T06:47:16.511Z,64.70
2018-11-05T06:49:45.454Z,53.43
2018-11-05T06:52:14.472Z,63.90
2018-11-05T06:54:43.391Z,53.07
2018-11-05T06:57:12.317Z,65.80
2018-11-05T06:59:41.264Z,58.80
2018-11-05T07:02:10.269Z,61.92
2018-11-05T07:04:39.261Z,56.00
2018-11-05T07:07:08.307Z,65.63
2018-11-05T07:09:37.318Z,70.97
2018-11-05T07:12:06.274Z,55.43
2018-11-05T07:14:35.215Z,70.13
2018-11-05T07:17:04.170Z,62.37
2018-11-05T07:19:33.109Z,68.23
2018-11-05T07:22:02.040Z,61.00
2018-11-05T07:24:30.963Z,71.77
2018-11-05T07:26:59.932Z,63.43
2018-11-05T07:29:28.900Z,64.23
2018-11-05T07:31:57.868Z,61.35
2018-11-05T07:34:26.822Z,59.70
2018-11-05T07:36:55.839Z,55.93
2018-11-05T07:39:25.080Z,61.73
2018-11-05T07:41:54.020Z,59.23
2018-11-05T07:44:23.079Z,53.87
2018-11-05T07:46:52.010Z,68.23
2018-11-05T07:49:21.033Z,64.27
2018-11-05T07:51:50.096Z,60.47
2018-11-05T07:54:18.999Z,65.33
2018-11-05T07:56:48.094Z,66.97
2018-11-05T07:59:17.044Z,62.40
2018-11-05T08:01:46.061Z,70.53
2018-11-05T08:04:15.047Z,59.30
2018-11-05T08:06:46.073Z,74.33
2018-11-05T08:09:15.033Z,63.83
2018-11-05T08:11:44.152Z,68.87
2018-11-05T08:14:13.233Z,64.50
2018-11-05T08:16:42.212Z,68.90
2018-11-05T08:19:11.132Z,69.90
2018-11-05T08:21:40.147Z,64.77
2018-11-05T08:24:09.085Z,69.53
2018-11-05T08:26:38.141Z,65.90
2018-11-05T08:29:07.262Z,67.00
2018-11-05T08:31:36.198Z,70.07
2018-11-05T08:34:05.231Z,98.93
2018-11-05T08:36:35.310Z,65.73
2018-11-05T08:39:08.427Z,63.73
2018-11-05T08:41:37.385Z,58.43
2018-11-05T08:44:07.197Z,61.17
2018-11-05T08:46:36.462Z,55.70
2018-11-05T08:49:06.050Z,63.10
2018-11-05T08:51:35.487Z,60.33
2018-11-05T08:54:05.253Z,62.63
2018-11-05T08:56:34.356Z,59.53
2018-11-05T08:59:03.697Z,60.57
2018-11-05T09:01:33.631Z,54.50
2018-11-05T09:04:02.797Z,61.40
2018-11-05T09:06:32.552Z,55.30
2018-11-05T09:09:01.531Z,55.27
2018-11-05T09:11:30.734Z,51.93
2018-11-05T09:13:59.528Z,52.97
2018-11-05T09:16:28.493Z,50.23
2018-11-05T09:18:57.418Z,49.70
2018-11-05T09:21:26.454Z,56.30
2018-11-05T09:23:55.408Z,54.60
2018-11-05T09:26:24.391Z,48.00
2018-11-05T09:28:53.331Z,41.80
2018-11-05T09:31:22.290Z,54.13
2018-11-05T09:33:51.244Z,49.40
2018-11-05T09:36:20.187Z,58.90
2018-11-05T09:38:49.584Z,47.47
2018-11-05T09:41:18.578Z,47.27
2018-11-05T09:43:47.949Z,44.77
2018-11-05T09:46:17.156Z,47.27
2018-11-05T09:48:48.917Z,41.63
2018-11-05T09:51:18.431Z,47.90
2018-11-05T09:53:52.765Z,49.63
2018-11-05T09:56:23.762Z,45.20
2018-11-05T09:58:53.100Z,46.67
2018-11-05T10:01:22.158Z,47.50
2018-11-05T10:03:54.290Z,47.37
2018-11-05T10:06:23.741Z,46.57
2018-11-05T10:08:52.944Z,45.17
2018-11-05T10:11:21.923Z,45.50
2018-11-05T10:13:50.930Z,47.83
2018-11-05T10:16:20.037Z,44.23
2018-11-05T10:18:50.759Z,46.57
2018-11-05T10:21:20.339Z,50.10
2018-11-05T10:23:49.384Z,42.43
2018-11-05T10:26:18.419Z,47.73
2018-11-05T10:28:47.343Z,41.37
2018-11-05T10:31:21.879Z,44.20
2018-11-05T10:33:51.805Z,40.00
2018-11-05T10:36:21.220Z,39.83
2018-11-05T10:38:50.245Z,41.80
2018-11-05T10:41:19.671Z,46.00
2018-11-05T10:43:48.898Z,37.73
2018-11-05T10:46:18.653Z,45.73
2018-11-05T10:48:48.227Z,48.87
2018-11-05T10:51:17.395Z,43.83
2018-11-05T10:53:46.757Z,49.17
2018-11-05T10:56:15.729Z,41.30
2018-11-05T10:58:44.855Z,39.13
2018-11-05T11:01:16.734Z,43.57
2018-11-05T11:03:51.103Z,41.73
2018-11-05T11:06:20.276Z,42.77
2018-11-05T11:08:49.372Z,39.43
2018-11-05T11:11:18.419Z,41.13
2018-11-05T11:13:47.486Z,36.00
2018-11-05T11:16:16.424Z,41.40
2018-11-05T11:18:45.732Z,41.60
2018-11-05T11:21:14.727Z,44.37
2018-11-05T11:23:43.774Z,42.67
2018-11-05T11:26:12.784Z,42.10
2018-11-05T11:28:41.799Z,47.00
2018-11-05T11:31:10.750Z,38.73
2018-11-05T11:33:39.928Z,40.23
2018-11-05T11:36:09.084Z,44.30
2018-11-05T11:38:38.218Z,43.07
2018-11-05T11:41:07.224Z,50.97
2018-11-05T11:43:36.200Z,43.50
2018-11-05T11:46:05.747Z,46.03
2018-11-05T11:48:35.857Z,48.50
2018-11-05T11:51:05.161Z,44.23
2018-11-05T11:53:34.483Z,42.07
2018-11-05T11:56:04.312Z,36.90
2018-11-05T11:58:33.329Z,36.70
2018-11-05T12:01:02.405Z,40.60
2018-11-05T12:03:31.427Z,42.80
2018-11-05T12:06:00.408Z,43.90
2018-11-05T12:08:29.392Z,46.10
2018-11-05T12:10:58.387Z,45.53
2018-11-05T12:13:27.387Z,49.27
2018-11-05T12:15:56.347Z,44.55
2018-11-05T12:18:25.296Z,42.80
2018-11-05T12:20:54.411Z,44.43
2018-11-05T12:23:23.351Z,45.00
2018-11-05T12:25:52.345Z,44.03
2018-11-05T12:28:21.297Z,50.57
2018-11-05T12:30:50.212Z,42.73
2018-11-05T12:33:19.211Z,45.67
2018-11-05T12:35:48.178Z,46.43
2018-11-05T12:38:17.428Z,40.37
2018-11-05T12:40:47.326Z,42.23
2018-11-05T12:43:16.361Z,40.83
2018-11-05T12:45:45.319Z,42.23
2018-11-05T12:48:14.482Z,38.47
2018-11-05T12:50:44.158Z,38.23
2018-11-05T12:53:13.269Z,39.03
2018-11-05T12:55:42.706Z,41.23
2018-11-05T12:58:12.761Z,41.08
2018-11-05T13:00:41.789Z,37.42
2018-11-05T13:03:10.931Z,39.13
2018-11-05T13:05:43.651Z,40.10
2018-11-05T13:08:12.684Z,40.20
2018-11-05T13:10:41.650Z,38.30
2018-11-05T13:13:10.581Z,37.60
2018-11-05T13:15:39.556Z,39.75
2018-11-05T13:18:08.502Z,37.43
2018-11-05T13:20:37.567Z,39.25
2018-11-05T13:23:06.709Z,37.70
2018-11-05T13:25:35.665Z,37.27
2018-11-05T13:28:04.631Z,37.03
2018-11-05T13:30:33.625Z,37.80
2018-11-05T13:33:03.248Z,37.90
2018-11-05T13:35:32.193Z,40.40
2018-11-05T13:38:01.704Z,41.53
2018-11-05T13:40:30.214Z,37.53
2018-11-05T13:42:59.209Z,42.87
2018-11-05T13:45:28.539Z,42.83
2018-11-05T13:47:57.912Z,38.10
2018-11-05T13:50:26.583Z,42.43
2018-11-05T13:52:55.349Z,47.20
2018-11-05T13:55:24.291Z,42.87
2018-11-05T13:57:53.296Z,40.50
2018-11-05T14:00:22.337Z,39.80
2018-11-05T14:02:51.296Z,46.08
2018-11-05T14:05:20.311Z,39.17
2018-11-05T14:07:49.289Z,41.27
2018-11-05T14:10:20.191Z,43.30
2018-11-05T14:12:49.593Z,45.00
2018-11-05T14:15:18.628Z,42.57
2018-11-05T14:17:47.784Z,40.70
2018-11-05T14:20:18.035Z,42.27
2018-11-05T14:22:47.180Z,42.60
2018-11-05T14:25:17.362Z,44.00
2018-11-05T14:27:47.728Z,50.13
2018-11-05T14:30:16.796Z,45.10
2018-11-05T14:32:46.828Z,42.97
2018-11-05T14:35:15.923Z,43.83
2018-11-05T14:37:44.935Z,43.07
2018-11-05T14:40:16.045Z,42.23
2018-11-05T14:42:45.118Z,43.50
2018-11-05T14:45:15.263Z,41.03
2018-11-05T14:47:45.097Z,40.93
2018-11-05T14:50:15.954Z,45.83
2018-11-05T14:52:44.956Z,44.30
2018-11-05T14:55:15.613Z,40.07
2018-11-05T14:57:45.515Z,48.30
2018-11-05T15:00:18.787Z,41.43
2018-11-05T15:02:48.388Z,41.30
2018-11-05T15:05:17.582Z,43.13
2018-11-05T15:07:47.444Z,42.67
2018-11-05T15:10:19.864Z,40.23
2018-11-05T15:12:48.881Z,41.03
2018-11-05T15:15:18.476Z,39.37
2018-11-05T15:17:47.668Z,41.40
2018-11-05T15:20:18.166Z,43.17
2018-11-05T15:22:47.013Z,41.83
2018-11-05T15:25:16.445Z,41.43
2018-11-05T15:27:45.385Z,40.23
2018-11-05T15:30:16.902Z,43.27
2018-11-05T15:32:46.026Z,48.33
2018-11-05T15:35:15.153Z,39.30
2018-11-05T15:37:44.442Z,41.20
2018-11-05T15:40:15.585Z,45.07
2018-11-05T15:42:44.595Z,46.27
2018-11-05T15:45:14.723Z,46.00
2018-11-05T15:47:43.807Z,42.67
2018-11-05T15:50:14.090Z,40.07
2018-11-05T15:52:43.698Z,42.87
2018-11-05T15:55:12.649Z,41.70
2018-11-05T15:57:41.766Z,46.33
2018-11-05T16:00:16.320Z,43.83
2018-11-05T16:02:47.097Z,44.53
2018-11-05T16:05:16.145Z,44.53
2018-11-05T16:07:45.562Z,41.07
2018-11-05T16:10:14.685Z,42.37
2018-11-05T16:12:43.634Z,43.43
2018-11-05T16:15:13.457Z,41.90
2018-11-05T16:17:42.600Z,50.27
2018-11-05T16:20:17.544Z,45.63
2018-11-05T16:22:47.321Z,43.83
2018-11-05T16:25:16.248Z,50.73
2018-11-05T16:27:45.317Z,50.73
2018-11-05T16:30:15.812Z,44.10
2018-11-05T16:32:45.237Z,42.17
2018-11-05T16:35:20.218Z,41.40
2018-11-05T16:37:49.283Z,46.00
2018-11-05T16:40:19.088Z,39.77
2018-11-05T16:42:49.752Z,50.50
2018-11-05T16:45:18.808Z,46.80
2018-11-05T16:47:48.256Z,40.47
2018-11-05T16:50:22.042Z,45.93
2018-11-05T16:52:51.230Z,46.83
2018-11-05T16:55:20.181Z,39.37
2018-11-05T16:57:49.207Z,42.73
2018-11-05T17:00:18.323Z,42.47
2018-11-05T17:02:47.947Z,44.77
2018-11-05T17:05:17.333Z,50.33
2018-11-05T17:07:46.334Z,46.37
2018-11-05T17:10:15.634Z,44.17
2018-11-05T17:13:00.733Z,46.13
2018-11-05T17:15:30.476Z,45.87
2018-11-05T17:17:59.431Z,44.07
2018-11-05T17:20:28.438Z,42.37
2018-11-05T17:22:57.924Z,43.83
2018-11-05T17:25:26.887Z,40.23
2018-11-05T17:27:58.408Z,46.83
2018-11-05T17:30:27.336Z,43.90
2018-11-05T17:32:56.939Z,43.20
2018-11-05T17:35:25.938Z,42.53
2018-11-05T17:37:54.894Z,41.47
2018-11-05T17:40:23.865Z,43.80
2018-11-05T17:42:52.849Z,43.07
2018-11-05T17:45:21.821Z,41.87
2018-11-05T17:47:51.282Z,45.57
2018-11-05T17:50:21.524Z,38.50
2018-11-05T17:52:50.571Z,43.90
2018-11-05T17:55:19.628Z,64.53
2018-11-05T17:57:49.297Z,108.97
2018-11-05T18:00:20.453Z,103.47
2018-11-05T18:02:49.466Z,80.60
2018-11-05T18:05:18.771Z,61.20
2018-11-05T18:07:48.052Z,53.63
2018-11-05T18:10:17.172Z,51.37
2018-11-05T18:12:46.165Z,44.20
2018-11-05T18:15:15.325Z,47.63
2018-11-05T18:17:45.275Z,45.60
2018-11-05T18:20:15.680Z,49.87
2018-11-05T18:22:44.620Z,43.27
2018-11-05T18:25:15.922Z,42.90
2018-11-05T18:27:45.075Z,50.87
2018-11-05T18:30:14.976Z,56.20
2018-11-05T18:32:43.973Z,48.80
2018-11-05T18:35:14.011Z,47.37
2018-11-05T18:37:44.670Z,46.63
2018-11-05T18:40:14.665Z,50.30
2018-11-05T18:42:44.535Z,45.00
2018-11-05T18:45:13.469Z,49.80
2018-11-05T18:47:42.500Z,42.97
2018-11-05T18:50:13.320Z,47.60
2018-11-05T18:52:42.937Z,44.20
2018-11-05T18:55:13.324Z,50.20
2018-11-05T18:57:42.261Z,48.57
2018-11-05T19:00:17.974Z,42.70
2018-11-05T19:02:47.401Z,54.70
2018-11-05T19:05:16.940Z,42.03
2018-11-05T19:07:46.093Z,43.50
2018-11-05T19:10:15.056Z,44.80
2018-11-05T19:12:43.957Z,49.13
2018-11-05T19:15:14.150Z,40.40
2018-11-05T19:17:44.468Z,39.60
2018-11-05T19:20:13.548Z,42.37
2018-11-05T19:22:43.168Z,41.70
2018-11-05T19:25:13.350Z,41.60
2018-11-05T19:27:42.697Z,40.17
2018-11-05T19:30:16.781Z,42.00
2018-11-05T19:32:46.471Z,46.90
2018-11-05T19:35:15.766Z,44.47
2018-11-05T19:37:45.221Z,35.63
2018-11-05T19:40:15.615Z,39.63
2018-11-05T19:42:45.617Z,35.97
2018-11-05T20:07:41.936Z,49.80
2018-11-05T20:10:11.990Z,51.50
2018-11-05T20:12:41.488Z,47.70
2018-11-05T20:15:10.729Z,42.50
2018-11-05T20:17:40.663Z,39.00
2018-11-05T20:20:11.204Z,51.70
2018-11-05T20:22:41.418Z,58.07
2018-11-05T20:25:10.957Z,48.92
2018-11-05T20:27:40.617Z,51.83
2018-11-05T20:30:13.424Z,37.73
2018-11-05T20:32:43.040Z,47.13
2018-11-05T20:35:11.800Z,43.00
2018-11-05T20:37:40.827Z,36.03
2018-11-05T20:40:12.490Z,53.43
2018-11-05T20:42:43.361Z,43.70
2018-11-05T20:45:12.387Z,42.80
2018-11-05T20:47:41.652Z,40.87
2018-11-05T20:50:11.418Z,45.97
2018-11-05T20:52:40.585Z,48.27
2018-11-05T20:55:10.918Z,49.40
2018-11-05T20:57:40.463Z,56.63
2018-11-05T21:00:11.304Z,52.77
2018-11-05T21:02:41.032Z,39.27
2018-11-05T21:05:10.128Z,41.27
2018-11-05T21:07:40.294Z,52.50
2018-11-05T21:10:10.857Z,41.50
2018-11-05T21:12:40.639Z,41.80
2018-11-05T21:15:15.353Z,46.20
2018-11-05T21:17:45.656Z,44.33
2018-11-05T21:20:15.287Z,44.17
2018-11-05T21:22:45.296Z,44.97
2018-11-05T21:25:14.352Z,52.37
2018-11-05T21:27:44.021Z,36.00
2018-11-05T21:30:15.920Z,37.90
2018-11-05T21:32:44.968Z,33.40
2018-11-05T21:35:15.603Z,39.97
2018-11-05T21:37:44.823Z,45.00
2018-11-05T21:40:15.377Z,35.33
2018-11-05T21:42:44.633Z,38.17
2018-11-05T21:45:15.460Z,43.00
2018-11-05T21:47:45.572Z,43.73
2018-11-05T21:50:16.033Z,42.38
2018-11-05T21:52:45.472Z,49.33
2018-11-05T21:55:15.642Z,40.97
2018-11-05T21:57:46.379Z,40.23
2018-11-05T22:00:17.829Z,36.93
2018-11-05T22:02:52.496Z,43.83
2018-11-05T22:05:24.383Z,36.80
2018-11-05T22:07:54.245Z,41.60
2018-11-05T22:10:23.648Z,34.80
2018-11-05T22:12:53.034Z,35.43
2018-11-05T22:15:22.223Z,31.73
2018-11-05T22:17:51.958Z,51.18
2018-11-05T22:20:21.456Z,48.50
2018-11-05T22:22:50.795Z,49.27
2018-11-05T22:25:19.807Z,41.63
2018-11-05T22:27:48.727Z,38.00
2018-11-05T22:30:18.050Z,38.53
2018-11-05T22:32:47.308Z,38.40
2018-11-05T22:35:16.288Z,35.67
2018-11-05T22:37:45.280Z,37.90
2018-11-05T22:40:15.197Z,36.27
2018-11-05T22:42:44.669Z,49.43
2018-11-05T22:45:14.648Z,55.70
2018-11-05T22:47:44.403Z,37.33
2018-11-05T22:50:13.452Z,43.87
2018-11-05T22:52:42.821Z,73.93
2018-11-05T22:55:11.819Z,35.50
2018-11-05T22:57:40.819Z,55.37
2018-11-05T23:02:20.313Z,37.30
2018-11-05T23:04:49.604Z,63.93
2018-11-05T23:07:18.576Z,47.87
2018-11-05T23:09:47.589Z,64.37
2018-11-05T23:12:16.588Z,35.90
2018-11-05T23:14:45.568Z,43.07
2018-11-05T23:17:15.028Z,77.33
2018-11-05T23:19:43.988Z,53.50
2018-11-05T23:22:12.898Z,40.33
2018-11-05T23:24:41.842Z,46.63
2018-11-05T23:27:10.778Z,54.80
2018-11-05T23:29:39.712Z,66.00
2018-11-05T23:32:08.681Z,65.73
2018-11-05T23:34:37.616Z,41.07
2018-11-05T23:37:06.815Z,41.80
2018-11-05T23:39:35.811Z,42.67
2018-11-05T23:42:04.757Z,56.53
2018-11-05T23:44:34.242Z,37.63
2018-11-05T23:47:03.200Z,44.60
2018-11-05T23:49:32.519Z,75.37
2018-11-05T23:52:01.439Z,45.90
2018-11-05T23:54:30.356Z,50.17
2018-11-05T23:56:59.341Z,48.57
2018-11-05T23:59:28.436Z,41.97
